Time;durP1;ratioP1;P1;durP2;ratioP2;P2;SDS_P1;SDS_P2;PMS_P1;PMS_P2;Temp;Humidity;BMP_temperature;BMP_pressure;BME280_temperature;BME280_humidity;BME280_pressure;Samples;Min_cycle;Max_cycle;Signal;HPM_P1;HPM_P2
2021/04/03 00:04:50;;;;;;;12.27;4.20;;;;;;;3.03;73.63;101160.00;8915852;33;20221;-72
2021/04/03 00:09:52;;;;;;;14.83;4.37;;;;;;;3.07;74.13;101153.63;8915747;33;20229;-71
2021/04/03 00:14:55;;;;;;;16.77;3.67;;;;;;;3.06;73.38;101158.09;8914981;33;20229;-72
2021/04/03 00:19:58;;;;;;;10.13;3.37;;;;;;;2.93;72.93;101142.69;8915144;33;20702;-71
2021/04/03 00:25:00;;;;;;;12.70;3.50;;;;;;;2.82;72.95;101148.38;8915027;33;20233;-71
2021/04/03 00:30:15;;;;;;;8.57;3.43;;;;;;;2.53;72.70;101126.44;8915003;33;20895;-72
2021/04/03 00:35:21;;;;;;;10.90;3.20;;;;;;;2.40;73.35;101147.16;8914464;33;20226;-72
2021/04/03 00:40:27;;;;;;;12.27;3.13;;;;;;;2.45;73.89;101157.63;8914654;33;20631;-72
2021/04/03 00:45:30;;;;;;;12.70;3.63;;;;;;;2.32;73.57;101146.56;8888636;33;20227;-71
2021/04/03 00:50:35;;;;;;;11.80;2.80;;;;;;;2.33;73.14;101134.16;8914058;33;21463;-71
2021/04/03 00:55:39;;;;;;;10.60;3.50;;;;;;;2.36;72.38;101131.44;8888214;33;20225;-71
2021/04/03 01:00:42;;;;;;;8.03;2.70;;;;;;;2.27;71.84;101132.59;8888632;33;20233;-71
2021/04/03 01:05:46;;;;;;;13.30;3.53;;;;;;;2.05;71.62;101131.59;8888194;33;20337;-72
2021/04/03 01:10:53;;;;;;;9.07;3.00;;;;;;;1.81;71.91;101138.56;8913373;33;20411;-72
2021/04/03 01:16:08;;;;;;;7.53;2.73;;;;;;;1.64;72.67;101142.63;8888443;33;21405;-72
2021/04/03 01:21:18;;;;;;;8.70;2.73;;;;;;;1.69;72.79;101148.66;8913710;33;20233;-72
2021/04/03 01:26:44;;;;;;;11.50;3.40;;;;;;;1.81;72.74;101144.78;8875823;33;20229;-73
2021/04/03 01:31:50;;;;;;;12.73;3.30;;;;;;;1.87;72.06;101141.06;8888092;33;20263;-72
2021/04/03 01:36:58;;;;;;;17.30;3.53;;;;;;;1.83;72.02;101147.34;8912602;33;20730;-72
2021/04/03 01:42:06;;;;;;;5.17;2.70;;;;;;;1.81;72.20;101149.19;8887672;33;20228;-72
2021/04/03 01:47:10;;;;;;;8.53;2.97;;;;;;;1.66;71.83;101143.47;8913147;33;20384;-73
2021/04/03 01:52:13;;;;;;;10.97;3.07;;;;;;;1.51;72.83;101149.25;8862666;33;20226;-73
2021/04/03 01:57:16;;;;;;;11.13;3.57;;;;;;;1.44;72.90;101150.34;8884902;33;20225;-73
2021/04/03 02:02:24;;;;;;;7.60;3.23;;;;;;;1.48;72.51;101155.53;8913128;33;20217;-72
2021/04/03 02:07:29;;;;;;;12.50;3.93;;;;;;;1.66;72.74;101161.13;8911206;33;20260;-73
2021/04/03 02:12:37;;;;;;;8.30;3.13;;;;;;;1.90;72.30;101162.16;8887105;33;20214;-72
2021/04/03 02:17:58;;;;;;;13.57;3.30;;;;;;;2.10;71.90;101167.63;8883154;33;20792;-72
2021/04/03 02:23:09;;;;;;;16.67;4.00;;;;;;;2.17;70.88;101174.50;8886962;33;20218;-72
2021/04/03 02:28:14;;;;;;;10.97;2.93;;;;;;;2.13;70.41;101170.19;8886344;33;20225;-72
2021/04/03 02:33:23;;;;;;;9.53;2.97;;;;;;;1.98;70.71;101172.50;8912036;33;20217;-73
2021/04/03 02:38:25;;;;;;;10.17;3.60;;;;;;;1.89;71.14;101166.59;8911326;33;20228;-72
2021/04/03 02:43:52;;;;;;;13.13;3.47;;;;;;;1.87;71.11;101170.19;8912114;33;20328;-73
2021/04/03 02:49:02;;;;;;;9.50;3.47;;;;;;;1.81;71.23;101180.97;8915534;33;20225;-72
2021/04/03 02:54:16;;;;;;;9.77;3.03;;;;;;;1.61;71.00;101179.81;8891903;33;20236;-73
2021/04/03 02:59:23;;;;;;;13.40;3.30;;;;;;;1.69;70.55;101183.09;8867116;33;20218;-72
2021/04/03 03:04:28;;;;;;;12.30;3.27;;;;;;;1.78;70.21;101191.66;8916209;33;20214;-71
2021/04/03 03:09:32;;;;;;;9.80;3.43;;;;;;;1.64;70.00;101194.75;8891253;33;20236;-71
2021/04/03 03:14:41;;;;;;;9.93;3.20;;;;;;;1.54;70.27;101194.19;8875226;33;20857;-72
2021/04/03 03:19:46;;;;;;;12.17;3.60;;;;;;;1.46;70.78;101193.53;8847643;33;20283;-72
2021/04/03 03:24:49;;;;;;;9.20;2.90;;;;;;;1.30;70.89;101181.69;8856521;33;20295;-72
2021/04/03 03:29:54;;;;;;;8.90;3.60;;;;;;;1.27;71.03;101172.06;8842912;33;20283;-71
2021/04/03 03:34:58;;;;;;;14.87;3.20;;;;;;;1.26;71.08;101165.00;8856191;33;20234;-71
2021/04/03 03:40:03;;;;;;;8.37;2.60;;;;;;;1.17;71.57;101170.56;8855006;33;20380;-73
2021/04/03 03:45:12;;;;;;;10.13;3.23;;;;;;;1.29;71.19;101167.59;8854493;33;20268;-72
2021/04/03 03:50:16;;;;;;;8.57;3.47;;;;;;;1.26;71.22;101179.13;8854616;33;20226;-72
2021/04/03 03:55:22;;;;;;;10.23;3.00;;;;;;;1.37;71.03;101181.47;8889990;33;20341;-72
2021/04/03 04:00:27;;;;;;;17.17;4.67;;;;;;;1.42;70.77;101197.19;8913302;33;20221;-71
2021/04/03 04:05:40;;;;;;;17.20;3.60;;;;;;;1.35;70.96;101193.88;8915410;33;20271;-72
2021/04/03 04:10:45;;;;;;;16.33;4.20;;;;;;;1.45;71.08;101195.34;8915379;33;20221;-72
2021/04/03 04:15:52;;;;;;;7.23;3.00;;;;;;;1.62;70.75;101199.22;8857813;33;20880;-72
2021/04/03 04:20:58;;;;;;;7.80;3.90;;;;;;;1.83;70.17;101206.50;8855349;33;20316;-72
2021/04/03 04:26:05;;;;;;;10.33;3.80;;;;;;;1.76;70.40;101215.56;8854038;33;20226;-72
2021/04/03 04:31:08;;;;;;;9.07;3.20;;;;;;;1.81;70.58;101208.34;8855401;33;20683;-72
2021/04/03 04:36:23;;;;;;;9.70;3.93;;;;;;;1.61;71.55;101223.97;8853434;33;20234;-73
2021/04/03 04:41:27;;;;;;;11.40;3.90;;;;;;;1.89;70.93;101224.88;8853567;33;20238;-72
2021/04/03 04:46:29;;;;;;;14.43;3.67;;;;;;;1.94;70.87;101233.53;8853183;33;20791;-72
2021/04/03 04:51:34;;;;;;;14.10;4.13;;;;;;;2.06;70.78;101234.94;8853154;33;20268;-72
2021/04/03 04:56:51;;;;;;;10.37;3.87;;;;;;;2.14;71.21;101246.16;8852669;33;20799;-72
2021/04/03 05:02:03;;;;;;;9.63;3.50;;;;;;;2.36;71.23;101250.78;8854634;33;20275;-71
2021/04/03 05:07:06;;;;;;;15.33;4.37;;;;;;;2.45;71.69;101269.03;8852630;33;20229;-72
2021/04/03 05:12:10;;;;;;;11.17;3.83;;;;;;;2.57;71.37;101273.06;8853961;33;20214;-71
2021/04/03 05:17:12;;;;;;;21.40;5.70;;;;;;;2.81;71.27;101277.53;8902049;33;20837;-73
2021/04/03 05:22:15;;;;;;;17.70;4.57;;;;;;;2.98;71.14;101269.00;8914147;33;20225;-73
2021/04/03 05:27:18;;;;;;;17.90;4.60;;;;;;;3.15;71.14;101275.50;8912952;33;20242;-73
2021/04/03 05:32:20;;;;;;;18.20;5.37;;;;;;;3.20;71.00;101277.06;8913939;33;20218;-73
2021/04/03 05:37:24;;;;;;;17.20;3.10;;;;;;;3.50;71.57;101272.41;8912749;33;20263;-73
2021/04/03 05:42:33;;;;;;;13.60;5.20;;;;;;;4.00;70.86;101281.16;8913304;33;20213;-73
2021/04/03 05:47:36;;;;;;;18.13;5.85;;;;;;;4.38;69.59;101290.25;8912720;33;20744;-71
2021/04/03 05:52:40;;;;;;;18.17;5.05;;;;;;;4.53;68.01;101300.28;8912773;33;20210;-71
2021/04/03 05:57:43;;;;;;;18.83;6.18;;;;;;;4.55;67.83;101311.75;8912488;33;20241;-71
2021/04/03 06:02:45;;;;;;;17.90;5.85;;;;;;;4.51;67.25;101319.91;8887468;33;20601;-71
2021/04/03 06:07:48;;;;;;;17.38;6.07;;;;;;;4.29;67.54;101334.06;8912270;33;20684;-72
2021/04/03 06:12:50;;;;;;;21.83;6.17;;;;;;;4.18;68.13;101326.50;8914051;33;20718;-71
2021/04/03 06:17:55;;;;;;;18.50;5.70;;;;;;;4.16;68.36;101343.44;8856224;33;20230;-71
2021/04/03 06:22:58;;;;;;;22.30;6.90;;;;;;;4.01;68.87;101355.56;8855088;33;20730;-71
2021/04/03 06:28:06;;;;;;;30.23;8.13;;;;;;;4.31;68.69;101358.81;8857034;33;20234;-71
2021/04/03 06:33:16;;;;;;;20.80;7.30;;;;;;;4.49;67.71;101382.94;8857032;33;20225;-71
2021/04/03 06:38:24;;;;;;;25.93;6.93;;;;;;;4.30;68.06;101388.13;8858101;33;20225;-71
2021/04/03 06:43:26;;;;;;;22.37;6.80;;;;;;;4.38;68.25;101386.03;8621169;33;20336;-73
2021/04/03 06:48:30;;;;;;;20.70;6.77;;;;;;;4.51;68.07;101389.94;8531718;33;20916;-72
2021/04/03 06:53:34;;;;;;;19.47;6.60;;;;;;;4.41;68.01;101396.56;8822350;33;20225;-72
2021/04/03 06:58:38;;;;;;;25.97;9.53;;;;;;;4.49;68.27;101405.09;8917720;33;20282;-73
2021/04/03 07:03:49;;;;;;;18.90;7.80;;;;;;;4.66;67.59;101415.06;8917764;33;20232;-72
2021/04/03 07:08:52;;;;;;;20.00;8.00;;;;;;;4.89;67.22;101411.50;8891695;33;20235;-73
2021/04/03 07:13:55;;;;;;;24.83;7.50;;;;;;;4.96;66.58;101423.59;8909506;33;20280;-72
2021/04/03 07:18:58;;;;;;;20.53;7.90;;;;;;;4.94;66.28;101430.81;8912936;33;20228;-73
2021/04/03 07:24:02;;;;;;;18.90;7.43;;;;;;;5.25;66.26;101438.44;8895672;33;20226;-72
2021/04/03 07:29:05;;;;;;;20.67;7.13;;;;;;;5.48;65.02;101445.44;8856062;33;20303;-72
2021/04/03 07:34:08;;;;;;;20.23;6.67;;;;;;;5.44;64.13;101450.97;8856012;33;20226;-72
2021/04/03 07:39:36;;;;;;;23.63;7.05;;;;;;;5.21;63.79;101457.25;8861572;33;20233;-71
2021/04/03 07:44:39;;;;;;;22.08;7.10;;;;;;;5.47;64.29;101462.38;8914262;33;20229;-73
2021/04/03 07:49:41;;;;;;;23.83;8.18;;;;;;;5.78;62.71;101453.03;8915649;33;20229;-73
2021/04/03 07:54:44;;;;;;;25.65;7.30;;;;;;;5.18;64.30;101465.38;8889865;33;20649;-71
2021/04/03 07:59:52;;;;;;;17.90;7.30;;;;;;;5.50;64.95;101472.91;8916039;33;20264;-71
2021/04/03 08:04:56;;;;;;;18.10;7.47;;;;;;;5.57;64.47;101484.19;8841014;33;20365;-71
2021/04/03 08:09:59;;;;;;;22.83;7.13;;;;;;;6.02;63.60;101501.78;8855926;33;20226;-71
2021/04/03 08:15:01;;;;;;;27.58;7.38;;;;;;;5.46;64.22;101497.09;8855311;32;21402;-71
2021/04/03 08:20:07;;;;;;;25.83;7.78;;;;;;;5.36;64.34;101496.59;8826896;33;21533;-70
2021/04/03 08:25:11;;;;;;;25.00;7.63;;;;;;;5.92;63.51;101496.00;8820576;33;20266;-71
2021/04/03 08:30:23;;;;;;;24.83;9.07;;;;;;;6.53;62.00;101499.50;8825842;32;20226;-71
2021/04/03 08:35:29;;;;;;;22.02;8.18;;;;;;;6.88;61.16;101511.19;8825348;33;20261;-72
2021/04/03 08:40:32;;;;;;;24.00;7.78;;;;;;;7.47;59.94;101503.88;8821569;33;20225;-72
2021/04/03 08:45:36;;;;;;;18.35;7.68;;;;;;;7.52;57.81;101496.50;8824072;33;20261;-72
2021/04/03 08:50:40;;;;;;;20.50;7.68;;;;;;;7.50;58.17;101503.72;8821675;33;20236;-71
2021/04/03 08:55:44;;;;;;;22.17;7.22;;;;;;;8.04;57.37;101495.63;8852403;33;20252;-71
2021/04/03 09:00:46;;;;;;;17.95;7.82;;;;;;;7.54;56.89;101497.25;8830186;33;20223;-71
2021/04/03 09:05:49;;;;;;;19.63;6.63;;;;;;;8.76;54.06;101491.72;8794855;33;20219;-72
2021/04/03 09:10:58;;;;;;;23.65;7.47;;;;;;;7.59;57.53;101500.56;8836563;33;20632;-72
2021/04/03 09:16:11;;;;;;;19.40;7.32;;;;;;;7.48;57.10;101494.91;8853729;33;20226;-72
2021/04/03 09:21:20;;;;;;;17.92;7.35;;;;;;;8.28;56.95;101490.75;8837048;33;20668;-72
2021/04/03 09:26:34;;;;;;;22.05;6.72;;;;;;;8.81;52.41;101495.00;8822697;33;20234;-72
2021/04/03 09:31:41;;;;;;;18.00;7.05;;;;;;;7.98;56.77;101487.88;8822045;33;20660;-72
2021/04/03 09:36:47;;;;;;;17.90;6.25;;;;;;;8.94;53.52;101484.44;8821145;33;20372;-72
2021/04/03 09:41:53;;;;;;;16.65;6.10;;;;;;;8.46;54.41;101478.22;8825726;33;20226;-72
2021/04/03 09:46:55;;;;;;;15.65;6.93;;;;;;;9.28;53.57;101476.19;8851635;33;20648;-72
2021/04/03 09:51:57;;;;;;;14.95;5.72;;;;;;;10.89;48.45;101469.91;8832551;33;20238;-72
2021/04/03 09:57:01;;;;;;;16.40;5.85;;;;;;;9.90;49.32;101473.44;8798473;33;20720;-72
2021/04/03 10:02:05;;;;;;;12.07;6.22;;;;;;;9.27;52.39;101477.16;8794914;33;20223;-73
2021/04/03 10:07:07;;;;;;;15.80;5.57;;;;;;;10.33;48.98;101472.59;8793314;33;20743;-71
2021/04/03 10:12:12;;;;;;;11.90;5.05;;;;;;;9.01;52.21;101483.16;8818020;33;20862;-71
2021/04/03 10:17:14;;;;;;;15.20;5.78;;;;;;;8.92;52.33;101483.69;8776538;33;20264;-71
2021/04/03 10:22:16;;;;;;;15.45;5.80;;;;;;;9.74;51.42;101483.34;8888817;33;20233;-72
2021/04/03 10:27:20;;;;;;;23.05;6.60;;;;;;;9.87;51.37;101486.16;8913583;33;20229;-72
2021/04/03 10:32:22;;;;;;;15.35;5.38;;;;;;;10.41;49.76;101499.84;8912676;33;20221;-73
2021/04/03 10:37:24;;;;;;;15.88;5.72;;;;;;;11.26;47.80;101481.84;8912492;33;20217;-72
2021/04/03 10:42:28;;;;;;;12.90;5.95;;;;;;;11.86;46.02;101478.66;8911568;33;20225;-72
2021/04/03 10:47:30;;;;;;;14.02;5.25;;;;;;;12.34;44.92;101478.03;8911024;33;20253;-72
2021/04/03 10:52:32;;;;;;;12.05;4.65;;;;;;;13.18;41.48;101476.41;8911053;33;20256;-73
2021/04/03 10:57:35;;;;;;;12.50;5.05;;;;;;;13.01;42.42;101469.56;8910378;33;20858;-72
2021/04/03 11:02:37;;;;;;;14.70;5.32;;;;;;;11.64;45.48;101468.50;8911516;33;20217;-73
2021/04/03 11:07:39;;;;;;;10.23;5.30;;;;;;;12.96;42.01;101467.22;8912466;33;20240;-72
2021/04/03 11:12:43;;;;;;;16.10;5.95;;;;;;;12.85;43.54;101459.06;8916506;33;20221;-72
2021/04/03 11:17:45;;;;;;;14.85;5.47;;;;;;;12.09;43.88;101463.56;8895498;33;20271;-72
2021/04/03 11:22:47;;;;;;;8.63;4.68;;;;;;;12.27;43.80;101460.56;8917757;33;20214;-73
2021/04/03 11:27:50;;;;;;;8.35;4.07;;;;;;;13.59;40.21;101459.81;8916220;33;20229;-72
2021/04/03 11:32:53;;;;;;;11.35;5.20;;;;;;;13.48;41.71;101447.13;8916705;33;20229;-71
2021/04/03 11:37:55;;;;;;;8.38;3.65;;;;;;;13.45;38.78;101446.50;8916331;33;20234;-71
2021/04/03 11:42:58;;;;;;;6.43;3.45;;;;;;;15.32;36.72;101453.09;8917079;33;20760;-71
2021/04/03 11:48:05;;;;;;;4.68;2.85;;;;;;;14.77;34.35;101463.13;8868978;33;20225;-72
2021/04/03 11:53:08;;;;;;;8.60;3.45;;;;;;;14.49;35.30;101457.25;8856512;33;20222;-71
2021/04/03 11:58:11;;;;;;;6.65;4.35;;;;;;;14.43;37.08;101457.75;8855925;33;20218;-71
2021/04/03 12:03:13;;;;;;;10.70;3.72;;;;;;;13.43;38.20;101453.84;8856022;33;20218;-71
2021/04/03 12:08:15;;;;;;;4.93;2.70;;;;;;;13.26;35.89;101447.00;8855593;33;20234;-72
2021/04/03 12:13:21;;;;;;;6.13;3.05;;;;;;;13.92;34.67;101450.06;8855727;33;20344;-71
2021/04/03 12:18:23;;;;;;;4.00;2.65;;;;;;;13.34;36.07;101443.72;8853920;33;20647;-72
2021/04/03 12:23:25;;;;;;;7.55;3.72;;;;;;;13.46;38.41;101429.31;8856583;33;20641;-72
2021/04/03 12:28:28;;;;;;;8.23;3.35;;;;;;;13.25;36.69;101429.97;8855126;33;20222;-72
2021/04/03 12:33:31;;;;;;;5.35;3.17;;;;;;;14.47;34.16;101424.06;8855151;33;20243;-72
2021/04/03 12:38:33;;;;;;;7.25;2.67;;;;;;;13.60;34.02;101422.84;8757965;33;20234;-72
2021/04/03 12:43:37;;;;;;;5.85;3.40;;;;;;;13.35;36.31;101413.06;8855120;33;20214;-71
2021/04/03 12:48:40;;;;;;;9.30;3.47;;;;;;;13.72;35.38;101411.13;8854993;33;20264;-71
2021/04/03 12:53:42;;;;;;;6.53;2.50;;;;;;;14.14;33.24;101403.28;8854733;33;20230;-71
2021/04/03 12:58:45;;;;;;;6.78;2.60;;;;;;;15.53;31.00;101404.44;8854639;33;20276;-72
2021/04/03 13:03:47;;;;;;;5.32;2.25;;;;;;;16.41;28.85;101405.75;8854132;33;20938;-71
2021/04/03 13:08:49;;;;;;;2.60;1.77;;;;;;;18.40;26.78;101398.91;8852450;33;20739;-72
2021/04/03 13:13:52;;;;;;;2.88;2.20;;;;;;;16.91;28.88;101403.00;8854539;33;20219;-72
2021/04/03 13:18:54;;;;;;;5.10;2.00;;;;;;;17.83;27.65;101388.97;8840937;33;20259;-72
2021/04/03 13:23:56;;;;;;;2.85;1.85;;;;;;;16.87;28.69;101390.72;8833217;33;20321;-72
2021/04/03 13:29:00;;;;;;;5.40;2.55;;;;;;;16.41;29.49;101381.34;8852467;33;20234;-72
2021/04/03 13:34:02;;;;;;;2.90;1.80;;;;;;;15.41;30.48;101384.69;8821113;32;20276;-72
2021/04/03 13:39:04;;;;;;;5.28;2.15;;;;;;;16.73;29.42;101383.88;8805565;33;20229;-71
2021/04/03 13:44:07;;;;;;;4.90;2.15;;;;;;;17.71;27.06;101379.25;8852526;33;20222;-72
2021/04/03 13:49:09;;;;;;;6.20;2.75;;;;;;;15.95;28.52;101373.72;8850726;33;20229;-72
2021/04/03 13:54:12;;;;;;;5.10;2.20;;;;;;;15.10;30.04;101361.19;8831741;33;20623;-71
2021/04/03 13:59:15;;;;;;;3.63;2.10;;;;;;;16.47;28.29;101336.56;8851653;33;20287;-71
2021/04/03 14:04:17;;;;;;;5.78;2.33;;;;;;;14.85;30.65;101346.19;8852125;33;20231;-70
2021/04/03 14:09:19;;;;;;;4.72;2.30;;;;;;;14.15;32.33;101348.25;8851797;33;20233;-72
2021/04/03 14:14:23;;;;;;;4.25;2.00;;;;;;;16.68;28.75;101342.72;8852452;33;20645;-72
2021/04/03 14:19:25;;;;;;;3.78;2.10;;;;;;;17.10;27.02;101333.44;8849857;33;20249;-72
2021/04/03 14:24:27;;;;;;;5.78;2.25;;;;;;;15.76;29.48;101336.56;8851695;33;20221;-71
2021/04/03 14:29:30;;;;;;;5.63;2.30;;;;;;;14.92;29.67;101332.00;8851364;33;20222;-72
2021/04/03 14:34:32;;;;;;;4.13;2.13;;;;;;;14.93;30.90;101338.28;8851730;33;20245;-72
2021/04/03 14:39:34;;;;;;;6.53;2.58;;;;;;;15.11;30.35;101334.00;8814554;33;20231;-72
2021/04/03 14:44:37;;;;;;;2.80;2.50;;;;;;;14.86;30.86;101331.66;8796041;33;20222;-72
2021/04/03 14:49:39;;;;;;;5.70;2.53;;;;;;;14.61;31.57;101333.69;8796756;33;20223;-72
2021/04/03 14:54:42;;;;;;;8.55;3.15;;;;;;;15.56;29.69;101317.50;8804590;33;20723;-72
2021/04/03 14:59:45;;;;;;;4.72;2.63;;;;;;;15.61;30.07;101314.41;8833438;33;20219;-72
2021/04/03 15:04:47;;;;;;;6.57;2.80;;;;;;;14.38;30.00;101312.16;8823972;33;20276;-72
2021/04/03 15:09:49;;;;;;;4.40;2.47;;;;;;;14.22;31.42;101314.34;8847732;33;20235;-72
2021/04/03 15:14:52;;;;;;;6.10;2.88;;;;;;;14.10;31.99;101308.13;8855889;33;20606;-72
2021/04/03 15:19:54;;;;;;;6.22;2.95;;;;;;;14.25;31.97;101306.00;8827994;33;20771;-72
2021/04/03 15:24:56;;;;;;;4.05;2.75;;;;;;;13.94;31.66;101297.69;8818036;33;20231;-72
2021/04/03 15:29:59;;;;;;;6.15;2.80;;;;;;;13.63;32.32;101293.91;8796784;33;20731;-73
2021/04/03 15:35:02;;;;;;;4.65;3.38;;;;;;;13.33;32.97;101297.16;8796629;33;20777;-72
2021/04/03 15:40:06;;;;;;;3.85;2.60;;;;;;;13.87;32.67;101303.72;8848485;33;20222;-72
2021/04/03 15:45:11;;;;;;;6.38;2.88;;;;;;;15.40;30.33;101290.06;8853738;33;20233;-72
2021/04/03 15:50:13;;;;;;;8.80;2.90;;;;;;;16.17;29.74;101286.78;8855069;33;21442;-72
2021/04/03 15:55:16;;;;;;;3.50;2.72;;;;;;;14.78;31.19;101298.00;8854548;33;20226;-72
2021/04/03 16:00:20;;;;;;;4.70;3.22;;;;;;;13.72;32.88;101289.63;8854822;33;20283;-72
2021/04/03 16:05:22;;;;;;;7.25;3.28;;;;;;;13.31;34.43;101293.72;8854735;33;20230;-72
2021/04/03 16:10:26;;;;;;;6.95;3.50;;;;;;;13.04;34.18;101291.31;8846076;33;20740;-72
2021/04/03 16:15:29;;;;;;;5.28;3.17;;;;;;;13.51;34.40;101288.63;8824333;33;20227;-72
2021/04/03 16:20:31;;;;;;;5.55;3.33;;;;;;;13.15;34.28;101288.66;8824589;33;20222;-72
2021/04/03 16:25:33;;;;;;;7.13;3.60;;;;;;;13.01;34.99;101278.06;8836617;33;20254;-72
2021/04/03 16:30:36;;;;;;;7.32;3.40;;;;;;;12.60;35.79;101284.78;8854204;33;20325;-72
2021/04/03 16:35:38;;;;;;;6.75;3.72;;;;;;;12.02;36.14;101281.00;8800120;33;20218;-72
2021/04/03 16:40:41;;;;;;;11.77;4.03;;;;;;;11.99;37.17;101275.84;8793589;33;20268;-71
2021/04/03 16:45:44;;;;;;;9.48;3.92;;;;;;;12.12;38.00;101277.53;8804450;33;20310;-71
2021/04/03 16:50:47;;;;;;;11.20;4.90;;;;;;;12.65;37.50;101268.28;8849035;33;20226;-71
2021/04/03 16:55:49;;;;;;;12.55;5.75;;;;;;;13.29;36.90;101279.47;8831640;33;20226;-72
2021/04/03 17:00:53;;;;;;;8.40;4.65;;;;;;;13.02;37.00;101282.47;8845370;33;20218;-72
2021/04/03 17:05:55;;;;;;;11.02;4.93;;;;;;;12.75;37.60;101277.38;8850471;33;20231;-71
2021/04/03 17:10:57;;;;;;;9.98;4.35;;;;;;;12.49;38.62;101282.91;8852555;33;20284;-72
2021/04/03 17:16:00;;;;;;;11.07;5.82;;;;;;;11.97;39.20;101275.94;8852450;33;20222;-71
2021/04/03 17:21:03;;;;;;;13.93;5.47;;;;;;;11.85;40.02;101279.56;8853137;33;20632;-71
2021/04/03 17:26:05;;;;;;;11.23;5.45;;;;;;;11.19;40.93;101290.44;8852553;33;20244;-71
2021/04/03 17:31:08;;;;;;;14.90;4.82;;;;;;;10.63;41.43;101291.59;8829613;33;20222;-71
2021/04/03 17:36:11;;;;;;;13.70;5.20;;;;;;;10.32;42.28;101283.75;8815025;33;20235;-71
2021/04/03 17:41:13;;;;;;;17.70;5.78;;;;;;;10.01;43.29;101278.63;8806456;33;20257;-72
2021/04/03 17:46:16;;;;;;;7.28;4.47;;;;;;;9.75;44.15;101282.97;8851129;33;20233;-72
2021/04/03 17:51:19;;;;;;;10.00;4.93;;;;;;;9.54;44.63;101291.38;8836727;33;20723;-71
2021/04/03 17:56:21;;;;;;;11.55;4.50;;;;;;;9.36;45.23;101290.72;8829760;33;20231;-71
2021/04/03 18:01:25;;;;;;;8.35;4.60;;;;;;;9.15;45.97;101292.88;8836807;33;20795;-71
2021/04/03 18:06:27;;;;;;;9.77;4.93;;;;;;;8.95;46.61;101291.41;8787420;33;20223;-71
2021/04/03 18:11:29;;;;;;;14.57;4.35;;;;;;;8.74;47.29;101301.59;8812420;33;21727;-72
2021/04/03 18:16:32;;;;;;;11.02;5.07;;;;;;;8.62;47.67;101299.63;8829468;33;20242;-72
2021/04/03 18:21:35;;;;;;;12.45;5.15;;;;;;;8.46;48.77;101293.44;8848802;33;20230;-71
2021/04/03 18:26:37;;;;;;;12.98;4.90;;;;;;;8.31;49.33;101305.84;8847984;33;21480;-71
2021/04/03 18:31:41;;;;;;;19.45;5.65;;;;;;;8.05;49.99;101299.31;8832677;33;652153;-71
2021/04/03 18:36:43;;;;;;;12.90;4.88;;;;;;;8.00;50.60;101310.25;8851834;33;20222;-71
2021/04/03 18:42:05;;;;;;;13.85;5.30;;;;;;;7.94;50.99;101310.59;8851576;33;20774;-71
2021/04/03 18:47:08;;;;;;;12.63;5.20;;;;;;;7.87;51.28;101319.91;8826119;33;20219;-71
2021/04/03 18:52:10;;;;;;;13.10;5.63;;;;;;;7.71;51.90;101322.56;8820969;33;20218;-71
2021/04/03 18:57:13;;;;;;;14.35;4.60;;;;;;;7.62;52.44;101331.06;8833589;33;20230;-72
2021/04/03 19:02:16;;;;;;;22.38;7.05;;;;;;;7.42;53.27;101334.81;8821906;33;20218;-72
2021/04/03 19:07:18;;;;;;;11.55;5.65;;;;;;;7.33;53.85;101332.63;8821056;33;20230;-72
2021/04/03 19:12:20;;;;;;;13.23;5.28;;;;;;;7.14;54.48;101340.75;8821002;33;20233;-72
2021/04/03 19:17:24;;;;;;;14.13;5.47;;;;;;;7.18;54.42;101345.81;8826765;33;20801;-72
2021/04/03 19:22:26;;;;;;;12.02;5.55;;;;;;;7.16;54.35;101339.72;8830501;33;20230;-72
2021/04/03 19:27:28;;;;;;;16.65;5.60;;;;;;;7.04;54.48;101340.34;8851145;33;20218;-72
2021/04/03 19:32:32;;;;;;;14.40;5.68;;;;;;;6.92;54.87;101351.66;8857011;33;20237;-72
2021/04/03 19:37:34;;;;;;;14.43;5.60;;;;;;;6.83;55.04;101364.50;8847158;33;20226;-72
2021/04/03 19:42:37;;;;;;;19.02;5.63;;;;;;;6.63;55.29;101373.47;8808966;33;20238;-72
2021/04/03 19:47:41;;;;;;;22.08;5.90;;;;;;;6.54;55.24;101381.94;8797380;33;20238;-72
2021/04/03 19:52:43;;;;;;;18.88;5.97;;;;;;;6.36;55.43;101383.69;8797146;33;20932;-71
2021/04/03 19:57:45;;;;;;;10.88;5.20;;;;;;;6.31;55.48;101395.53;8796492;33;20231;-71
2021/04/03 20:02:48;;;;;;;13.00;5.63;;;;;;;6.27;55.34;101405.47;8796836;33;20219;-72
2021/04/03 20:07:56;;;;;;;17.30;5.50;;;;;;;6.11;55.71;101407.97;8796285;33;20724;-72
2021/04/03 20:12:58;;;;;;;10.88;5.00;;;;;;;6.02;55.80;101404.88;8796569;33;20237;-71
2021/04/03 20:18:03;;;;;;;16.58;6.05;;;;;;;5.93;55.53;101407.03;8852960;33;20743;-71
2021/04/03 20:23:06;;;;;;;16.85;5.80;;;;;;;5.82;55.51;101400.47;8855312;33;20283;-72
2021/04/03 20:28:08;;;;;;;12.93;4.65;;;;;;;5.79;55.39;101405.91;8855765;33;20942;-72
2021/04/03 20:33:12;;;;;;;14.45;5.72;;;;;;;5.66;55.66;101403.78;8855550;33;20222;-71
2021/04/03 20:38:15;;;;;;;12.38;5.60;;;;;;;5.62;55.80;101412.88;8854545;33;20226;-71
2021/04/03 20:43:17;;;;;;;14.35;6.00;;;;;;;5.55;55.92;101405.22;8853966;33;20225;-72
2021/04/03 20:48:20;;;;;;;19.23;6.00;;;;;;;5.48;56.18;101405.44;8854368;33;20275;-72
2021/04/03 20:53:23;;;;;;;16.67;6.32;;;;;;;5.33;56.45;101414.13;8854572;33;20237;-72
2021/04/03 20:58:27;;;;;;;19.88;5.82;;;;;;;5.28;56.93;101408.13;8852934;33;20257;-72
2021/04/03 21:03:31;;;;;;;20.13;6.50;;;;;;;5.18;56.99;101401.44;8851973;33;20230;-72
2021/04/03 21:08:34;;;;;;;17.70;5.80;;;;;;;5.05;57.56;101396.66;8911214;33;20283;-72
2021/04/03 21:13:36;;;;;;;16.40;6.10;;;;;;;4.90;57.69;101401.72;8914179;33;20633;-72
2021/04/03 21:18:39;;;;;;;17.80;5.72;;;;;;;4.59;58.75;101389.66;8901170;33;20248;-72
2021/04/03 21:23:41;;;;;;;19.50;5.50;;;;;;;4.24;59.93;101401.66;8913351;33;20229;-71
2021/04/03 21:28:43;;;;;;;14.25;6.35;;;;;;;4.27;59.88;101404.22;8851532;33;20261;-72
2021/04/03 21:33:46;;;;;;;19.80;7.05;;;;;;;4.38;59.25;101409.97;8853304;33;20218;-72
2021/04/03 21:38:48;;;;;;;14.87;6.60;;;;;;;4.30;59.32;101402.28;8885192;33;20218;-72
2021/04/03 21:43:51;;;;;;;16.20;6.20;;;;;;;4.20;59.76;101411.56;8913096;33;20283;-71
2021/04/03 21:48:54;;;;;;;15.35;6.78;;;;;;;4.12;59.93;101414.50;8917779;33;20217;-71
2021/04/03 21:53:56;;;;;;;19.98;7.45;;;;;;;4.08;60.11;101420.00;8892423;33;21997;-71
2021/04/03 21:58:58;;;;;;;14.77;6.60;;;;;;;4.04;59.96;101413.06;8912725;33;22024;-72
2021/04/03 22:04:01;;;;;;;18.87;7.53;;;;;;;3.83;60.54;101412.94;8913075;33;20316;-72
2021/04/03 22:09:05;;;;;;;19.17;6.73;;;;;;;3.63;61.21;101415.44;8912903;33;20233;-72
2021/04/03 22:14:07;;;;;;;20.50;7.78;;;;;;;3.51;61.52;101406.09;8914034;33;20228;-71
2021/04/03 22:19:10;;;;;;;13.90;7.40;;;;;;;3.44;61.65;101421.41;8886900;33;20236;-72
2021/04/03 22:24:13;;;;;;;21.63;7.20;;;;;;;3.39;62.07;101427.78;8912689;33;20225;-72
2021/04/03 22:29:15;;;;;;;25.70;7.60;;;;;;;3.35;62.05;101416.41;8912186;33;20220;-72
2021/04/03 22:34:18;;;;;;;16.97;7.27;;;;;;;3.46;62.10;101430.19;8912853;33;20221;-72
2021/04/03 22:39:20;;;;;;;15.97;6.70;;;;;;;3.68;61.14;101417.00;8912566;33;20229;-72
2021/04/03 22:44:23;;;;;;;12.73;6.93;;;;;;;3.65;61.09;101408.28;8914401;33;21415;-72
2021/04/03 22:49:26;;;;;;;17.10;6.07;;;;;;;3.63;61.08;101408.34;8913005;33;22075;-72
2021/04/03 22:54:29;;;;;;;19.57;6.70;;;;;;;3.41;61.62;101396.75;8912647;33;20232;-72
2021/04/03 22:59:31;;;;;;;13.90;6.77;;;;;;;3.35;61.89;101391.66;8912144;33;20224;-73
2021/04/03 23:04:34;;;;;;;13.20;6.73;;;;;;;3.17;62.05;101386.03;8914798;33;20217;-72
2021/04/03 23:09:36;;;;;;;13.87;6.73;;;;;;;3.18;62.23;101379.81;8917965;33;20229;-72
2021/04/03 23:14:38;;;;;;;23.13;7.03;;;;;;;3.17;62.17;101385.16;8900338;33;20225;-72
2021/04/03 23:19:41;;;;;;;14.07;6.87;;;;;;;3.23;62.05;101382.28;8857074;33;20230;-72
2021/04/03 23:24:43;;;;;;;16.80;7.07;;;;;;;3.25;61.63;101388.44;8857549;33;20226;-72
2021/04/03 23:29:46;;;;;;;17.50;6.53;;;;;;;3.26;61.49;101387.50;8856977;33;20357;-71
2021/04/03 23:34:49;;;;;;;16.23;7.23;;;;;;;3.21;61.61;101387.69;8857496;33;20222;-71